Weather forecast for El Toro

Venezuela, 369 m
N8.003, E-62.358


Sounding

Red line — air temperature ˚C.
Blue line — thermal bubble temperature ˚C.
Green line — dew point temperature ˚C.
Wind speed is in meters per second.

Table forecast

GFS 0.25˚ model

temp. wind gust humid. clouds prec. press. hpbl
Wed18 00:00 23 61.0 ene 2 8 88 100 0.3 1011 290
03:00 22 72.0 ene 2 7 94 100 0.6 1009 274
06:00 22 84.0 e 2 7 93 100 0.0 1009 233
09:00 25 106.0 ese 3 7 82 96 0.0 1011 477
12:00 27 117.0 ese 3 5 80 99 1.5 1009 804
15:00 29 70.0 ene 0 1 81 85 12.3 1006 371
18:00 26 347.0 nnw 1 1 91 100 9.6 1006 27
21:00 23 22.0 nne 1 2 95 100 18.2 1008 53
 
Thu19 00:00 22 29.0 nne 2 6 97 100 1.1 1009 228
03:00 22 39.0 ne 1 1 98 100 6.6 1009 28
06:00 21 162.0 sse 1 7 100 100 4.9 1009 405
09:00 21 169.0 s 1 2 98 100 6.3 1011 174
12:00 22 118.0 ese 1 1 94 100 0.0 1011 175
15:00 29 158.0 sse 2 2 63 100 0.1 1007 718
18:00 27 9.0 n 0 1 90 100 1.9 1007 58
21:00 23 29.0 nne 2 2 96 100 2.2 1009 48
 
Fri20 00:00 23 38.0 ne 1 3 98 100 0.0 1010 106
03:00 22 67.0 ene 1 6 98 100 0.1 1009 235
06:00 22 81.0 e 2 10 98 100 0.4 1010 347
09:00 24 99.0 e 3 8 89 100 0.5 1012 439
12:00 30 121.0 ese 3 5 66 33 0.2 1012 1088
15:00 32 126.0 se 2 4 54 17 0.2 1009 1749
18:00 30 121.0 ese 1 3 71 34 0.6 1008 251
21:00 23 41.0 ne 2 8 89 52 1.1 1010 246
 
Sat21 00:00 22 58.0 ene 2 9 97 20 3.4 1013 287
03:00 22 74.0 ene 2 10 99 16 3.4 1011 396
06:00 21 87.0 e 2 9 99 31 0.0 1012 373
09:00 24 90.0 e 3 7 95 31 0.0 1013 460
12:00 29 114.0 ese 3 5 66 56 0.0 1012 1182
15:00 27 72.0 ene 2 4 86 47 3.8 1010 591
18:00 25 78.0 ene 2 8 93 100 8.1 1009 344
21:00 22 120.0 ese 1 4 99 100 12.5 1011 217
 
Sun22 00:00 22 16.0 nne 1 1 96 100 0.1 1012 31
03:00 21 172.0 s 0 1 97 99 0.1 1011 23
06:00 21 173.0 s 1 1 99 98 0.0 1011 24
09:00 23 182.0 s 1 1 94 99 0.0 1012 234
12:00 28 212.0 ssw 1 1 79 100 1.3 1011 450
15:00 29 175.0 s 1 2 64 94 4.8 1009 737
18:00 26 94.0 e 1 1 92 100 3.3 1008 35
21:00 22 82.0 e 2 3 97 100 5.4 1010 95
 

0.014 s